KENV/ENV METAR and TAF weather

Enter ICAO airport designator
Station Type Date Time Source
KENV METAR 2021/04/18 01:56 UTC NOAA

KENV 180156Z AUTO 08009KT 10SM CLR 12/M08 A3022 RMK AO2 SLP234 T01171078


Station Type Date Time Source
KENV Decoded METAR 2021/04/18 01:56 UTC NOAA

Wendover / Air Force Auxillary Field, UT, United States (KENV) 40-44N 114-02W 1292M
Apr 17, 2021 - 09:56 PM EDT / 2021.04.18 0156 UTC
Wind: from the E (080 degrees) at 10 MPH (9 KT):0
Visibility: 10 mile(s):0
Sky conditions: clear
Temperature: 53.1 F (11.7 C)
Dew Point: 18.0 F (-7.8 C)
Relative Humidity: 24%
Pressure (altimeter): 30.22 in. Hg (1023 hPa)
ob: KENV 180156Z AUTO 08009KT 10SM CLR 12/M08 A3022 RMK AO2 SLP234 T01171078
cycle: 2

Station Type Date Time Source
KENV TAF 2021/04/17 18:34 UTC NOAA

TAF KENV 171732Z 1718/1818 04012G20KT P6SM FEW060
FM172200 09014KT P6SM FEW060
FM180400 34010KT P6SM SKC

Example: see airport list